sensor_id;sensor_type;location;lat;lon;timestamp;P1;durP1;ratioP1;P2;durP2;ratioP2
68858;SDS011;55864;49.238;8.092;2023-04-25T00:01:14;7.55;;;3.45;;
68858;SDS011;55864;49.238;8.092;2023-04-25T00:03:16;7.68;;;3.10;;
68858;SDS011;55864;49.238;8.092;2023-04-25T00:05:17;7.00;;;3.20;;
68858;SDS011;55864;49.238;8.092;2023-04-25T00:07:17;7.55;;;3.25;;
68858;SDS011;55864;49.238;8.092;2023-04-25T00:09:18;7.05;;;3.20;;
68858;SDS011;55864;49.238;8.092;2023-04-25T00:11:19;6.88;;;3.35;;
68858;SDS011;55864;49.238;8.092;2023-04-25T00:13:19;9.20;;;3.80;;
68858;SDS011;55864;49.238;8.092;2023-04-25T00:15:20;7.75;;;3.78;;
68858;SDS011;55864;49.238;8.092;2023-04-25T00:17:21;8.82;;;3.88;;
68858;SDS011;55864;49.238;8.092;2023-04-25T00:19:23;7.53;;;3.70;;
68858;SDS011;55864;49.238;8.092;2023-04-25T00:21:23;8.02;;;3.85;;
68858;SDS011;55864;49.238;8.092;2023-04-25T00:23:24;8.90;;;4.10;;
68858;SDS011;55864;49.238;8.092;2023-04-25T00:25:25;10.13;;;3.65;;
68858;SDS011;55864;49.238;8.092;2023-04-25T00:27:25;7.00;;;3.92;;
68858;SDS011;55864;49.238;8.092;2023-04-25T00:29:26;8.38;;;4.38;;
68858;SDS011;55864;49.238;8.092;2023-04-25T00:31:27;9.88;;;3.90;;
68858;SDS011;55864;49.238;8.092;2023-04-25T00:33:27;7.85;;;3.80;;
68858;SDS011;55864;49.238;8.092;2023-04-25T00:35:29;8.52;;;3.67;;
68858;SDS011;55864;49.238;8.092;2023-04-25T00:37:30;7.55;;;3.72;;
68858;SDS011;55864;49.238;8.092;2023-04-25T00:39:31;7.40;;;3.80;;
68858;SDS011;55864;49.238;8.092;2023-04-25T00:41:31;7.13;;;3.50;;
68858;SDS011;55864;49.238;8.092;2023-04-25T00:43:32;7.70;;;3.90;;
68858;SDS011;55864;49.238;8.092;2023-04-25T00:45:34;6.97;;;3.55;;
68858;SDS011;55864;49.238;8.092;2023-04-25T00:47:38;7.90;;;3.60;;
68858;SDS011;55864;49.238;8.092;2023-04-25T00:49:40;8.10;;;4.00;;
68858;SDS011;55864;49.238;8.092;2023-04-25T00:51:42;6.53;;;3.35;;
68858;SDS011;55864;49.238;8.092;2023-04-25T00:53:44;7.28;;;3.40;;
68858;SDS011;55864;49.238;8.092;2023-04-25T00:55:45;7.03;;;3.40;;
68858;SDS011;55864;49.238;8.092;2023-04-25T00:57:47;6.97;;;3.60;;
68858;SDS011;55864;49.238;8.092;2023-04-25T00:59:47;7.65;;;3.58;;
68858;SDS011;55864;49.238;8.092;2023-04-25T01:01:50;6.65;;;3.03;;
68858;SDS011;55864;49.238;8.092;2023-04-25T01:03:51;6.15;;;3.08;;
68858;SDS011;55864;49.238;8.092;2023-04-25T01:05:53;6.72;;;3.30;;
68858;SDS011;55864;49.238;8.092;2023-04-25T01:07:55;7.90;;;3.42;;
68858;SDS011;55864;49.238;8.092;2023-04-25T01:09:57;5.20;;;2.50;;
68858;SDS011;55864;49.238;8.092;2023-04-25T01:11:58;6.82;;;2.92;;
68858;SDS011;55864;49.238;8.092;2023-04-25T01:13:58;7.82;;;3.40;;
68858;SDS011;55864;49.238;8.092;2023-04-25T01:15:59;8.90;;;3.25;;
68858;SDS011;55864;49.238;8.092;2023-04-25T01:18:00;7.77;;;3.40;;
68858;SDS011;55864;49.238;8.092;2023-04-25T01:20:01;7.28;;;3.60;;
68858;SDS011;55864;49.238;8.092;2023-04-25T01:22:05;7.13;;;3.30;;
68858;SDS011;55864;49.238;8.092;2023-04-25T01:24:05;6.60;;;3.38;;
68858;SDS011;55864;49.238;8.092;2023-04-25T01:26:07;6.87;;;3.40;;
68858;SDS011;55864;49.238;8.092;2023-04-25T01:28:09;8.00;;;3.22;;
68858;SDS011;55864;49.238;8.092;2023-04-25T01:30:10;6.37;;;3.17;;
68858;SDS011;55864;49.238;8.092;2023-04-25T01:32:12;6.88;;;3.50;;
68858;SDS011;55864;49.238;8.092;2023-04-25T01:34:14;5.40;;;2.67;;
68858;SDS011;55864;49.238;8.092;2023-04-25T01:36:14;6.93;;;3.00;;
68858;SDS011;55864;49.238;8.092;2023-04-25T01:38:16;6.93;;;3.13;;
68858;SDS011;55864;49.238;8.092;2023-04-25T01:40:17;6.67;;;3.00;;
68858;SDS011;55864;49.238;8.092;2023-04-25T01:42:20;7.18;;;3.20;;
68858;SDS011;55864;49.238;8.092;2023-04-25T01:44:21;6.13;;;3.08;;
68858;SDS011;55864;49.238;8.092;2023-04-25T01:46:22;7.82;;;3.25;;
68858;SDS011;55864;49.238;8.092;2023-04-25T01:48:23;7.82;;;3.40;;
68858;SDS011;55864;49.238;8.092;2023-04-25T01:50:23;7.88;;;3.10;;
68858;SDS011;55864;49.238;8.092;2023-04-25T01:52:24;6.10;;;3.17;;
68858;SDS011;55864;49.238;8.092;2023-04-25T01:54:26;6.53;;;3.30;;
68858;SDS011;55864;49.238;8.092;2023-04-25T01:56:29;7.25;;;3.60;;
68858;SDS011;55864;49.238;8.092;2023-04-25T01:58:30;7.85;;;3.88;;
68858;SDS011;55864;49.238;8.092;2023-04-25T02:00:50;7.97;;;3.40;;
68858;SDS011;55864;49.238;8.092;2023-04-25T02:02:50;7.70;;;3.65;;
68858;SDS011;55864;49.238;8.092;2023-04-25T02:04:57;7.53;;;3.88;;
68858;SDS011;55864;49.238;8.092;2023-04-25T02:07:01;7.60;;;3.60;;
68858;SDS011;55864;49.238;8.092;2023-04-25T02:09:10;6.47;;;3.50;;
68858;SDS011;55864;49.238;8.092;2023-04-25T02:11:17;6.57;;;3.70;;
68858;SDS011;55864;49.238;8.092;2023-04-25T02:13:26;7.37;;;3.60;;
68858;SDS011;55864;49.238;8.092;2023-04-25T02:15:44;6.60;;;3.50;;
68858;SDS011;55864;49.238;8.092;2023-04-25T02:17:49;6.88;;;3.55;;
68858;SDS011;55864;49.238;8.092;2023-04-25T02:19:50;7.72;;;3.53;;
68858;SDS011;55864;49.238;8.092;2023-04-25T02:21:51;8.07;;;3.40;;
68858;SDS011;55864;49.238;8.092;2023-04-25T02:23:51;7.43;;;3.58;;
68858;SDS011;55864;49.238;8.092;2023-04-25T02:25:52;8.47;;;3.70;;
68858;SDS011;55864;49.238;8.092;2023-04-25T02:27:55;7.40;;;3.50;;
68858;SDS011;55864;49.238;8.092;2023-04-25T02:29:55;7.10;;;3.40;;
68858;SDS011;55864;49.238;8.092;2023-04-25T02:31:56;7.40;;;3.60;;
68858;SDS011;55864;49.238;8.092;2023-04-25T02:33:56;8.07;;;3.42;;
68858;SDS011;55864;49.238;8.092;2023-04-25T02:35:57;8.90;;;3.83;;
68858;SDS011;55864;49.238;8.092;2023-04-25T02:37:57;7.57;;;3.75;;
68858;SDS011;55864;49.238;8.092;2023-04-25T02:39:58;7.37;;;3.67;;
68858;SDS011;55864;49.238;8.092;2023-04-25T02:41:59;6.83;;;3.57;;
68858;SDS011;55864;49.238;8.092;2023-04-25T02:44:01;8.98;;;4.10;;
68858;SDS011;55864;49.238;8.092;2023-04-25T02:46:01;8.90;;;4.03;;
68858;SDS011;55864;49.238;8.092;2023-04-25T02:48:02;7.57;;;3.80;;
68858;SDS011;55864;49.238;8.092;2023-04-25T02:50:06;7.37;;;3.57;;
68858;SDS011;55864;49.238;8.092;2023-04-25T02:52:07;7.40;;;3.60;;
68858;SDS011;55864;49.238;8.092;2023-04-25T02:54:08;7.28;;;3.47;;
68858;SDS011;55864;49.238;8.092;2023-04-25T02:56:13;6.97;;;3.73;;
68858;SDS011;55864;49.238;8.092;2023-04-25T02:58:13;7.17;;;3.40;;
68858;SDS011;55864;49.238;8.092;2023-04-25T03:00:24;7.07;;;3.65;;
68858;SDS011;55864;49.238;8.092;2023-04-25T03:02:25;7.20;;;3.70;;
68858;SDS011;55864;49.238;8.092;2023-04-25T03:04:26;8.27;;;3.60;;
68858;SDS011;55864;49.238;8.092;2023-04-25T03:06:26;7.40;;;3.43;;
68858;SDS011;55864;49.238;8.092;2023-04-25T03:08:27;7.72;;;3.72;;
68858;SDS011;55864;49.238;8.092;2023-04-25T03:10:28;7.00;;;3.50;;
68858;SDS011;55864;49.238;8.092;2023-04-25T03:12:31;8.30;;;3.80;;
68858;SDS011;55864;49.238;8.092;2023-04-25T03:14:32;7.53;;;3.50;;
68858;SDS011;55864;49.238;8.092;2023-04-25T03:16:34;7.23;;;3.70;;
68858;SDS011;55864;49.238;8.092;2023-04-25T03:18:35;7.53;;;3.80;;
68858;SDS011;55864;49.238;8.092;2023-04-25T03:20:35;7.60;;;3.63;;
68858;SDS011;55864;49.238;8.092;2023-04-25T03:22:37;7.73;;;3.90;;
68858;SDS011;55864;49.238;8.092;2023-04-25T03:24:38;6.90;;;3.87;;
68858;SDS011;55864;49.238;8.092;2023-04-25T03:26:38;7.20;;;3.60;;
68858;SDS011;55864;49.238;8.092;2023-04-25T03:28:39;6.77;;;3.60;;
68858;SDS011;55864;49.238;8.092;2023-04-25T03:30:40;7.87;;;3.80;;
68858;SDS011;55864;49.238;8.092;2023-04-25T03:32:42;7.90;;;3.80;;
68858;SDS011;55864;49.238;8.092;2023-04-25T03:34:43;7.67;;;3.77;;
68858;SDS011;55864;49.238;8.092;2023-04-25T03:36:43;7.00;;;3.37;;
68858;SDS011;55864;49.238;8.092;2023-04-25T03:38:44;7.77;;;3.63;;
68858;SDS011;55864;49.238;8.092;2023-04-25T03:40:47;7.25;;;3.45;;
68858;SDS011;55864;49.238;8.092;2023-04-25T03:43:10;6.97;;;3.53;;
68858;SDS011;55864;49.238;8.092;2023-04-25T03:45:13;7.32;;;3.78;;
68858;SDS011;55864;49.238;8.092;2023-04-25T03:47:15;7.10;;;3.75;;
68858;SDS011;55864;49.238;8.092;2023-04-25T03:49:17;6.53;;;3.40;;
68858;SDS011;55864;49.238;8.092;2023-04-25T03:51:31;9.00;;;4.30;;
68858;SDS011;55864;49.238;8.092;2023-04-25T03:53:32;6.70;;;3.50;;
68858;SDS011;55864;49.238;8.092;2023-04-25T03:55:51;8.30;;;3.73;;
68858;SDS011;55864;49.238;8.092;2023-04-25T03:57:52;8.40;;;3.97;;
68858;SDS011;55864;49.238;8.092;2023-04-25T03:59:52;6.93;;;3.80;;
68858;SDS011;55864;49.238;8.092;2023-04-25T04:01:53;9.35;;;4.40;;
68858;SDS011;55864;49.238;8.092;2023-04-25T04:03:54;7.87;;;4.20;;
68858;SDS011;55864;49.238;8.092;2023-04-25T04:05:56;7.60;;;4.03;;
68858;SDS011;55864;49.238;8.092;2023-04-25T04:07:56;8.05;;;3.88;;
68858;SDS011;55864;49.238;8.092;2023-04-25T04:09:57;8.52;;;3.95;;
68858;SDS011;55864;49.238;8.092;2023-04-25T04:12:03;6.77;;;3.57;;
68858;SDS011;55864;49.238;8.092;2023-04-25T04:14:06;7.57;;;3.55;;
68858;SDS011;55864;49.238;8.092;2023-04-25T04:16:08;7.47;;;3.70;;
68858;SDS011;55864;49.238;8.092;2023-04-25T04:18:09;7.80;;;3.40;;
68858;SDS011;55864;49.238;8.092;2023-04-25T04:20:10;7.07;;;3.65;;
68858;SDS011;55864;49.238;8.092;2023-04-25T04:22:14;7.45;;;3.45;;
68858;SDS011;55864;49.238;8.092;2023-04-25T04:24:14;6.47;;;3.50;;
68858;SDS011;55864;49.238;8.092;2023-04-25T04:26:33;7.40;;;3.50;;
68858;SDS011;55864;49.238;8.092;2023-04-25T04:28:43;8.20;;;3.83;;
68858;SDS011;55864;49.238;8.092;2023-04-25T04:30:51;7.93;;;4.23;;
68858;SDS011;55864;49.238;8.092;2023-04-25T04:32:52;9.32;;;4.18;;
68858;SDS011;55864;49.238;8.092;2023-04-25T04:34:53;10.07;;;4.60;;
68858;SDS011;55864;49.238;8.092;2023-04-25T04:36:55;8.80;;;4.53;;
68858;SDS011;55864;49.238;8.092;2023-04-25T04:38:57;8.20;;;4.17;;
68858;SDS011;55864;49.238;8.092;2023-04-25T04:41:08;7.83;;;3.83;;
68858;SDS011;55864;49.238;8.092;2023-04-25T04:43:23;8.10;;;4.22;;
68858;SDS011;55864;49.238;8.092;2023-04-25T04:45:41;7.45;;;3.88;;
68858;SDS011;55864;49.238;8.092;2023-04-25T04:48:00;7.40;;;4.00;;
68858;SDS011;55864;49.238;8.092;2023-04-25T04:50:30;9.57;;;4.18;;
68858;SDS011;55864;49.238;8.092;2023-04-25T04:53:06;8.43;;;4.00;;
68858;SDS011;55864;49.238;8.092;2023-04-25T04:55:27;8.00;;;4.18;;
68858;SDS011;55864;49.238;8.092;2023-04-25T04:57:40;12.50;;;5.10;;
68858;SDS011;55864;49.238;8.092;2023-04-25T04:59:59;8.23;;;4.50;;
68858;SDS011;55864;49.238;8.092;2023-04-25T05:02:18;9.88;;;4.65;;
68858;SDS011;55864;49.238;8.092;2023-04-25T05:04:19;7.53;;;4.25;;
68858;SDS011;55864;49.238;8.092;2023-04-25T05:06:31;8.57;;;4.20;;
68858;SDS011;55864;49.238;8.092;2023-04-25T05:08:58;8.33;;;4.17;;
68858;SDS011;55864;49.238;8.092;2023-04-25T05:11:22;8.70;;;4.70;;
68858;SDS011;55864;49.238;8.092;2023-04-25T05:13:48;8.93;;;4.90;;
68858;SDS011;55864;49.238;8.092;2023-04-25T05:16:11;10.53;;;5.83;;
68858;SDS011;55864;49.238;8.092;2023-04-25T05:18:33;11.60;;;5.53;;
68858;SDS011;55864;49.238;8.092;2023-04-25T05:20:39;16.07;;;6.80;;
68858;SDS011;55864;49.238;8.092;2023-04-25T05:22:55;13.30;;;7.18;;
68858;SDS011;55864;49.238;8.092;2023-04-25T05:25:28;12.73;;;6.63;;
68858;SDS011;55864;49.238;8.092;2023-04-25T05:27:36;12.47;;;6.53;;
68858;SDS011;55864;49.238;8.092;2023-04-25T05:29:55;11.93;;;5.27;;
68858;SDS011;55864;49.238;8.092;2023-04-25T05:32:00;9.20;;;5.53;;
68858;SDS011;55864;49.238;8.092;2023-04-25T05:34:01;10.70;;;5.67;;
68858;SDS011;55864;49.238;8.092;2023-04-25T05:36:13;11.27;;;6.32;;
68858;SDS011;55864;49.238;8.092;2023-04-25T05:38:13;10.43;;;5.10;;
68858;SDS011;55864;49.238;8.092;2023-04-25T05:40:33;9.53;;;4.93;;
68858;SDS011;55864;49.238;8.092;2023-04-25T05:42:46;9.63;;;5.27;;
68858;SDS011;55864;49.238;8.092;2023-04-25T05:45:02;9.80;;;5.17;;
68858;SDS011;55864;49.238;8.092;2023-04-25T05:47:13;11.33;;;5.90;;
68858;SDS011;55864;49.238;8.092;2023-04-25T05:49:31;11.13;;;6.10;;
68858;SDS011;55864;49.238;8.092;2023-04-25T05:51:57;11.73;;;5.37;;
68858;SDS011;55864;49.238;8.092;2023-04-25T05:54:15;10.88;;;5.40;;
68858;SDS011;55864;49.238;8.092;2023-04-25T05:56:16;11.07;;;6.03;;
68858;SDS011;55864;49.238;8.092;2023-04-25T05:58:18;14.20;;;6.80;;
68858;SDS011;55864;49.238;8.092;2023-04-25T06:00:19;13.75;;;7.00;;
68858;SDS011;55864;49.238;8.092;2023-04-25T06:02:22;12.32;;;6.88;;
68858;SDS011;55864;49.238;8.092;2023-04-25T06:04:24;10.93;;;5.95;;
68858;SDS011;55864;49.238;8.092;2023-04-25T06:06:25;10.63;;;5.83;;
68858;SDS011;55864;49.238;8.092;2023-04-25T06:08:26;10.95;;;6.53;;
68858;SDS011;55864;49.238;8.092;2023-04-25T06:10:26;10.60;;;6.15;;
68858;SDS011;55864;49.238;8.092;2023-04-25T06:12:27;11.38;;;6.18;;
68858;SDS011;55864;49.238;8.092;2023-04-25T06:14:29;11.38;;;6.20;;
68858;SDS011;55864;49.238;8.092;2023-04-25T06:16:30;12.05;;;6.75;;
68858;SDS011;55864;49.238;8.092;2023-04-25T06:18:30;11.52;;;6.72;;
68858;SDS011;55864;49.238;8.092;2023-04-25T06:20:31;11.23;;;5.72;;
68858;SDS011;55864;49.238;8.092;2023-04-25T06:22:33;11.67;;;6.30;;
68858;SDS011;55864;49.238;8.092;2023-04-25T06:24:34;11.13;;;6.35;;
68858;SDS011;55864;49.238;8.092;2023-04-25T06:26:37;11.70;;;6.22;;
68858;SDS011;55864;49.238;8.092;2023-04-25T06:28:38;10.00;;;5.93;;
68858;SDS011;55864;49.238;8.092;2023-04-25T06:30:40;10.52;;;5.80;;
68858;SDS011;55864;49.238;8.092;2023-04-25T06:32:45;10.48;;;5.30;;
68858;SDS011;55864;49.238;8.092;2023-04-25T06:34:45;10.13;;;5.53;;
68858;SDS011;55864;49.238;8.092;2023-04-25T06:36:46;10.10;;;6.00;;
68858;SDS011;55864;49.238;8.092;2023-04-25T06:38:49;10.00;;;5.22;;
68858;SDS011;55864;49.238;8.092;2023-04-25T06:40:50;10.57;;;5.88;;
68858;SDS011;55864;49.238;8.092;2023-04-25T06:42:53;10.82;;;5.97;;
68858;SDS011;55864;49.238;8.092;2023-04-25T06:45:12;9.57;;;5.40;;
68858;SDS011;55864;49.238;8.092;2023-04-25T06:47:14;11.00;;;6.00;;
68858;SDS011;55864;49.238;8.092;2023-04-25T06:49:16;11.68;;;6.07;;
68858;SDS011;55864;49.238;8.092;2023-04-25T06:51:17;12.23;;;6.33;;
68858;SDS011;55864;49.238;8.092;2023-04-25T06:53:18;11.48;;;6.35;;
68858;SDS011;55864;49.238;8.092;2023-04-25T06:55:22;10.50;;;5.80;;
68858;SDS011;55864;49.238;8.092;2023-04-25T06:57:42;11.38;;;6.55;;
68858;SDS011;55864;49.238;8.092;2023-04-25T07:00:03;9.90;;;5.80;;
68858;SDS011;55864;49.238;8.092;2023-04-25T07:02:05;10.67;;;6.37;;
68858;SDS011;55864;49.238;8.092;2023-04-25T07:04:07;10.88;;;5.88;;
68858;SDS011;55864;49.238;8.092;2023-04-25T07:06:11;14.87;;;6.63;;
68858;SDS011;55864;49.238;8.092;2023-04-25T07:08:13;12.23;;;5.83;;
68858;SDS011;55864;49.238;8.092;2023-04-25T07:10:13;11.02;;;5.97;;
68858;SDS011;55864;49.238;8.092;2023-04-25T07:12:14;12.13;;;6.03;;
68858;SDS011;55864;49.238;8.092;2023-04-25T07:14:15;11.93;;;6.30;;
68858;SDS011;55864;49.238;8.092;2023-04-25T07:16:16;11.45;;;6.35;;
68858;SDS011;55864;49.238;8.092;2023-04-25T07:18:16;13.30;;;6.88;;
68858;SDS011;55864;49.238;8.092;2023-04-25T07:20:19;11.27;;;6.30;;
68858;SDS011;55864;49.238;8.092;2023-04-25T07:22:19;12.13;;;6.10;;
68858;SDS011;55864;49.238;8.092;2023-04-25T07:24:20;12.30;;;6.22;;
68858;SDS011;55864;49.238;8.092;2023-04-25T07:26:22;11.27;;;6.43;;
68858;SDS011;55864;49.238;8.092;2023-04-25T07:28:43;13.17;;;6.50;;
68858;SDS011;55864;49.238;8.092;2023-04-25T07:30:43;10.70;;;5.95;;
68858;SDS011;55864;49.238;8.092;2023-04-25T07:32:44;11.80;;;6.77;;
68858;SDS011;55864;49.238;8.092;2023-04-25T07:34:45;12.10;;;6.77;;
68858;SDS011;55864;49.238;8.092;2023-04-25T07:36:46;12.63;;;6.83;;
68858;SDS011;55864;49.238;8.092;2023-04-25T07:38:47;11.57;;;6.83;;
68858;SDS011;55864;49.238;8.092;2023-04-25T07:40:48;10.67;;;5.73;;
68858;SDS011;55864;49.238;8.092;2023-04-25T07:42:50;10.60;;;5.70;;
68858;SDS011;55864;49.238;8.092;2023-04-25T07:44:57;11.77;;;5.50;;
68858;SDS011;55864;49.238;8.092;2023-04-25T07:46:57;11.53;;;5.93;;
68858;SDS011;55864;49.238;8.092;2023-04-25T07:48:58;10.90;;;6.07;;
68858;SDS011;55864;49.238;8.092;2023-04-25T07:50:58;10.83;;;6.00;;
68858;SDS011;55864;49.238;8.092;2023-04-25T07:53:01;12.10;;;6.20;;
68858;SDS011;55864;49.238;8.092;2023-04-25T07:55:10;11.43;;;5.83;;
68858;SDS011;55864;49.238;8.092;2023-04-25T07:57:34;12.15;;;5.85;;
68858;SDS011;55864;49.238;8.092;2023-04-25T07:59:36;12.50;;;6.47;;
68858;SDS011;55864;49.238;8.092;2023-04-25T08:01:37;10.60;;;5.73;;
68858;SDS011;55864;49.238;8.092;2023-04-25T08:03:40;11.32;;;6.35;;
68858;SDS011;55864;49.238;8.092;2023-04-25T08:05:47;12.32;;;6.57;;
68858;SDS011;55864;49.238;8.092;2023-04-25T08:07:48;11.65;;;5.82;;
68858;SDS011;55864;49.238;8.092;2023-04-25T08:09:52;11.40;;;5.80;;
68858;SDS011;55864;49.238;8.092;2023-04-25T08:12:06;11.00;;;5.90;;
68858;SDS011;55864;49.238;8.092;2023-04-25T08:14:07;11.77;;;5.93;;
68858;SDS011;55864;49.238;8.092;2023-04-25T08:16:09;11.57;;;6.32;;
68858;SDS011;55864;49.238;8.092;2023-04-25T08:18:09;12.93;;;5.37;;
68858;SDS011;55864;49.238;8.092;2023-04-25T08:20:11;16.23;;;5.73;;
68858;SDS011;55864;49.238;8.092;2023-04-25T08:22:12;16.23;;;6.20;;
68858;SDS011;55864;49.238;8.092;2023-04-25T08:24:22;12.35;;;5.30;;
68858;SDS011;55864;49.238;8.092;2023-04-25T08:26:24;13.07;;;6.13;;
68858;SDS011;55864;49.238;8.092;2023-04-25T08:28:25;13.57;;;5.70;;
68858;SDS011;55864;49.238;8.092;2023-04-25T08:30:26;12.13;;;5.60;;
68858;SDS011;55864;49.238;8.092;2023-04-25T08:32:27;15.87;;;6.13;;
68858;SDS011;55864;49.238;8.092;2023-04-25T08:34:49;12.65;;;5.72;;
68858;SDS011;55864;49.238;8.092;2023-04-25T08:36:49;15.85;;;6.22;;
68858;SDS011;55864;49.238;8.092;2023-04-25T08:38:57;14.43;;;6.87;;
68858;SDS011;55864;49.238;8.092;2023-04-25T08:40:58;14.80;;;6.57;;
68858;SDS011;55864;49.238;8.092;2023-04-25T08:43:01;15.50;;;6.22;;
68858;SDS011;55864;49.238;8.092;2023-04-25T08:45:03;16.02;;;6.30;;
68858;SDS011;55864;49.238;8.092;2023-04-25T08:47:08;14.73;;;6.67;;
68858;SDS011;55864;49.238;8.092;2023-04-25T08:49:17;16.60;;;6.80;;
68858;SDS011;55864;49.238;8.092;2023-04-25T08:51:20;13.20;;;6.13;;
68858;SDS011;55864;49.238;8.092;2023-04-25T08:53:25;18.48;;;7.03;;
68858;SDS011;55864;49.238;8.092;2023-04-25T08:55:28;18.55;;;9.43;;
68858;SDS011;55864;49.238;8.092;2023-04-25T08:57:32;16.60;;;8.60;;
68858;SDS011;55864;49.238;8.092;2023-04-25T08:59:35;15.70;;;7.30;;
68858;SDS011;55864;49.238;8.092;2023-04-25T09:01:37;13.55;;;6.75;;
68858;SDS011;55864;49.238;8.092;2023-04-25T09:03:38;18.13;;;6.73;;
68858;SDS011;55864;49.238;8.092;2023-04-25T09:05:39;12.93;;;6.10;;
68858;SDS011;55864;49.238;8.092;2023-04-25T09:07:41;14.60;;;5.80;;
68858;SDS011;55864;49.238;8.092;2023-04-25T09:09:42;11.33;;;5.73;;
68858;SDS011;55864;49.238;8.092;2023-04-25T09:11:43;16.40;;;6.00;;
68858;SDS011;55864;49.238;8.092;2023-04-25T09:13:46;13.00;;;5.85;;
68858;SDS011;55864;49.238;8.092;2023-04-25T09:15:58;14.83;;;5.80;;
68858;SDS011;55864;49.238;8.092;2023-04-25T09:18:26;13.60;;;5.73;;
68858;SDS011;55864;49.238;8.092;2023-04-25T09:20:27;14.47;;;6.60;;
68858;SDS011;55864;49.238;8.092;2023-04-25T09:22:29;16.37;;;6.53;;
68858;SDS011;55864;49.238;8.092;2023-04-25T09:24:33;11.77;;;6.77;;
68858;SDS011;55864;49.238;8.092;2023-04-25T09:26:36;15.77;;;5.77;;
68858;SDS011;55864;49.238;8.092;2023-04-25T09:28:45;10.45;;;4.88;;
68858;SDS011;55864;49.238;8.092;2023-04-25T09:30:54;12.93;;;5.90;;
68858;SDS011;55864;49.238;8.092;2023-04-25T09:33:05;12.70;;;6.17;;
68858;SDS011;55864;49.238;8.092;2023-04-25T09:35:07;19.33;;;6.05;;
68858;SDS011;55864;49.238;8.092;2023-04-25T09:37:09;15.37;;;6.27;;
68858;SDS011;55864;49.238;8.092;2023-04-25T09:39:33;12.97;;;6.00;;
68858;SDS011;55864;49.238;8.092;2023-04-25T09:41:41;13.50;;;5.47;;
68858;SDS011;55864;49.238;8.092;2023-04-25T09:43:42;12.30;;;5.10;;
68858;SDS011;55864;49.238;8.092;2023-04-25T09:45:45;12.70;;;5.28;;
68858;SDS011;55864;49.238;8.092;2023-04-25T09:47:46;13.93;;;5.57;;
68858;SDS011;55864;49.238;8.092;2023-04-25T09:49:51;15.43;;;6.05;;
68858;SDS011;55864;49.238;8.092;2023-04-25T09:51:54;18.67;;;6.30;;
68858;SDS011;55864;49.238;8.092;2023-04-25T09:53:55;15.43;;;6.93;;
68858;SDS011;55864;49.238;8.092;2023-04-25T09:56:16;15.83;;;7.30;;
68858;SDS011;55864;49.238;8.092;2023-04-25T09:58:16;15.20;;;7.20;;
68858;SDS011;55864;49.238;8.092;2023-04-25T10:00:18;13.50;;;5.97;;
68858;SDS011;55864;49.238;8.092;2023-04-25T10:02:21;12.48;;;5.57;;
68858;SDS011;55864;49.238;8.092;2023-04-25T10:04:25;15.75;;;6.95;;
68858;SDS011;55864;49.238;8.092;2023-04-25T10:06:50;16.02;;;7.32;;
68858;SDS011;55864;49.238;8.092;2023-04-25T10:10:53;18.43;;;7.07;;
68858;SDS011;55864;49.238;8.092;2023-04-25T10:12:54;19.27;;;11.40;;
68858;SDS011;55864;49.238;8.092;2023-04-25T10:14:55;15.70;;;8.40;;
68858;SDS011;55864;49.238;8.092;2023-04-25T10:16:56;14.93;;;6.78;;
68858;SDS011;55864;49.238;8.092;2023-04-25T10:18:57;14.23;;;5.85;;
68858;SDS011;55864;49.238;8.092;2023-04-25T10:20:59;11.82;;;4.93;;
68858;SDS011;55864;49.238;8.092;2023-04-25T10:23:06;11.02;;;4.70;;
68858;SDS011;55864;49.238;8.092;2023-04-25T10:25:12;7.03;;;3.60;;
68858;SDS011;55864;49.238;8.092;2023-04-25T10:27:14;8.68;;;3.75;;
68858;SDS011;55864;49.238;8.092;2023-04-25T10:29:21;9.13;;;3.60;;
68858;SDS011;55864;49.238;8.092;2023-04-25T10:31:22;7.38;;;3.50;;
68858;SDS011;55864;49.238;8.092;2023-04-25T10:33:28;6.53;;;3.50;;
68858;SDS011;55864;49.238;8.092;2023-04-25T10:35:30;6.00;;;3.00;;
68858;SDS011;55864;49.238;8.092;2023-04-25T10:37:30;7.13;;;3.20;;
68858;SDS011;55864;49.238;8.092;2023-04-25T10:39:32;7.03;;;3.30;;
68858;SDS011;55864;49.238;8.092;2023-04-25T10:41:33;6.93;;;2.97;;
68858;SDS011;55864;49.238;8.092;2023-04-25T10:43:46;10.75;;;5.78;;
68858;SDS011;55864;49.238;8.092;2023-04-25T10:45:51;9.63;;;5.03;;
68858;SDS011;55864;49.238;8.092;2023-04-25T10:47:52;8.70;;;3.93;;
68858;SDS011;55864;49.238;8.092;2023-04-25T10:49:52;7.13;;;3.30;;
68858;SDS011;55864;49.238;8.092;2023-04-25T10:51:58;8.70;;;4.00;;
68858;SDS011;55864;49.238;8.092;2023-04-25T10:54:11;8.20;;;4.20;;
68858;SDS011;55864;49.238;8.092;2023-04-25T10:56:13;10.23;;;4.35;;
68858;SDS011;55864;49.238;8.092;2023-04-25T10:58:20;9.05;;;4.47;;
68858;SDS011;55864;49.238;8.092;2023-04-25T11:00:22;9.98;;;3.95;;
68858;SDS011;55864;49.238;8.092;2023-04-25T11:02:25;8.82;;;4.72;;
68858;SDS011;55864;49.238;8.092;2023-04-25T11:04:28;10.32;;;5.22;;
68858;SDS011;55864;49.238;8.092;2023-04-25T11:08:36;9.30;;;4.50;;
68858;SDS011;55864;49.238;8.092;2023-04-25T11:10:47;9.10;;;4.30;;
68858;SDS011;55864;49.238;8.092;2023-04-25T11:12:49;9.63;;;4.07;;
68858;SDS011;55864;49.238;8.092;2023-04-25T11:14:50;7.53;;;4.33;;
68858;SDS011;55864;49.238;8.092;2023-04-25T11:16:58;10.57;;;4.33;;
68858;SDS011;55864;49.238;8.092;2023-04-25T11:19:00;8.43;;;4.05;;
68858;SDS011;55864;49.238;8.092;2023-04-25T11:21:00;8.63;;;4.32;;
68858;SDS011;55864;49.238;8.092;2023-04-25T11:23:02;7.17;;;3.40;;
68858;SDS011;55864;49.238;8.092;2023-04-25T11:25:05;8.03;;;3.70;;
68858;SDS011;55864;49.238;8.092;2023-04-25T11:27:06;8.77;;;4.10;;
68858;SDS011;55864;49.238;8.092;2023-04-25T11:29:08;8.33;;;3.87;;
68858;SDS011;55864;49.238;8.092;2023-04-25T11:31:09;9.55;;;4.38;;
68858;SDS011;55864;49.238;8.092;2023-04-25T11:33:10;9.70;;;4.90;;
68858;SDS011;55864;49.238;8.092;2023-04-25T11:35:10;8.67;;;4.20;;
68858;SDS011;55864;49.238;8.092;2023-04-25T11:37:11;7.95;;;4.00;;
68858;SDS011;55864;49.238;8.092;2023-04-25T11:39:12;7.22;;;3.60;;
68858;SDS011;55864;49.238;8.092;2023-04-25T11:41:13;9.43;;;3.85;;
68858;SDS011;55864;49.238;8.092;2023-04-25T11:43:13;9.38;;;4.10;;
68858;SDS011;55864;49.238;8.092;2023-04-25T11:45:15;10.23;;;4.00;;
68858;SDS011;55864;49.238;8.092;2023-04-25T11:47:16;12.10;;;4.17;;
68858;SDS011;55864;49.238;8.092;2023-04-25T11:49:17;8.65;;;3.60;;
68858;SDS011;55864;49.238;8.092;2023-04-25T11:51:17;7.20;;;3.70;;
68858;SDS011;55864;49.238;8.092;2023-04-25T11:53:18;8.50;;;3.97;;
68858;SDS011;55864;49.238;8.092;2023-04-25T11:55:19;7.93;;;3.65;;
68858;SDS011;55864;49.238;8.092;2023-04-25T11:57:20;8.63;;;3.73;;
68858;SDS011;55864;49.238;8.092;2023-04-25T11:59:23;7.95;;;3.83;;
68858;SDS011;55864;49.238;8.092;2023-04-25T12:01:27;7.90;;;3.87;;
68858;SDS011;55864;49.238;8.092;2023-04-25T12:03:29;7.88;;;3.70;;
68858;SDS011;55864;49.238;8.092;2023-04-25T12:05:30;8.47;;;4.13;;
68858;SDS011;55864;49.238;8.092;2023-04-25T12:07:31;8.27;;;3.60;;
68858;SDS011;55864;49.238;8.092;2023-04-25T12:09:32;9.00;;;4.60;;
68858;SDS011;55864;49.238;8.092;2023-04-25T12:11:40;9.98;;;4.72;;
68858;SDS011;55864;49.238;8.092;2023-04-25T12:13:41;11.20;;;4.13;;
68858;SDS011;55864;49.238;8.092;2023-04-25T12:15:44;9.82;;;4.10;;
68858;SDS011;55864;49.238;8.092;2023-04-25T12:17:46;8.88;;;3.95;;
68858;SDS011;55864;49.238;8.092;2023-04-25T12:19:47;9.30;;;4.63;;
68858;SDS011;55864;49.238;8.092;2023-04-25T12:21:48;8.05;;;3.65;;
68858;SDS011;55864;49.238;8.092;2023-04-25T12:23:50;9.57;;;3.72;;
68858;SDS011;55864;49.238;8.092;2023-04-25T12:25:50;9.43;;;4.32;;
68858;SDS011;55864;49.238;8.092;2023-04-25T12:27:51;8.00;;;3.67;;
68858;SDS011;55864;49.238;8.092;2023-04-25T12:29:52;9.63;;;3.72;;